This is the latest recevied weather packets stored in our database for station/object 9W2UHF-10. If no packets are shown the sender has not sent any weather packets the latest 10 day(s).
| Time | Temp. | Humidity | Pressure | Rain* | Wind** | Luminosity | Snow |
|---|---|---|---|---|---|---|---|
| 1788139411 | 87° F | 70% | 760.9 mmHg | - | - | - | - |
| 1788138996 | 87° F | 72% | 761.5 mmHg | - | - | - | - |
| 1788137796 | 87° F | 71% | 761.4 mmHg | - | - | - | - |
| 1788136596 | 87° F | 70% | 761.1 mmHg | - | - | - | - |
| 1788136242 | 87° F | 70% | 760.9 mmHg | - | - | - | - |
| 1788135396 | 87° F | 70% | 760.9 mmHg | - | - | - | - |
| 1788134196 | 87° F | 70% | 760.9 mmHg | - | - | - | - |
| 1788133040 | 87° F | 69% | 760.6 mmHg | - | - | - | - |
| 1788132996 | 87° F | 69% | 760.6 mmHg | - | - | - | - |
| 1788131973 | 87° F | 69% | 760.4 mmHg | - | - | - | - |
| 1788131795 | 87° F | 69% | 760.4 mmHg | - | - | - | - |
| 1788130595 | 87° F | 69% | 760.3 mmHg | - | - | - | - |
| 1788129395 | 87° F | 68% | 760.2 mmHg | - | - | - | - |
| 1788128316 | 87° F | 69% | 760.3 mmHg | - | - | - | - |
| 1788128195 | 87° F | 69% | 760.3 mmHg | - | - | - | - |
| 1788127148 | 87° F | 68% | 760.1 mmHg | - | - | - | - |
| 1788126995 | 87° F | 68% | 760.1 mmHg | - | - | - | - |
| 1788125795 | 88° F | 69% | 760 mmHg | - | - | - | - |
| 1788124595 | 88° F | 68% | 759.9 mmHg | - | - | - | - |
| 1788124354 | 91° F | 64% | 758.2 mmHg | - | - | - | - |
| 1788123395 | 88° F | 68% | 759.8 mmHg | - | - | - | - |
| 1788123097 | 91° F | 63% | 758.2 mmHg | - | - | - | - |
| 1788122195 | 88° F | 68% | 759.7 mmHg | - | - | - | - |
| 1788121736 | 91° F | 61% | 758.3 mmHg | - | - | - | - |
| 1788120995 | 88° F | 67% | 759.5 mmHg | - | - | - | - |
* Rain since midnight (hover to see other rain measurements)
** Current wind speed in m/s (hover to see current wind gust speed)